sensor_id;sensor_type;location;lat;lon;timestamp;pressure;altitude;pressure_sealevel;temperature;humidity
69035;BME280;56091;55.756;37.412;2022-08-11T00:03:12;99891.47;;;17.20;50.28
69035;BME280;56091;55.756;37.412;2022-08-11T00:08:26;99899.66;;;17.20;50.48
69035;BME280;56091;55.756;37.412;2022-08-11T00:13:32;99898.06;;;17.14;50.83
69035;BME280;56091;55.756;37.412;2022-08-11T00:18:42;99898.06;;;17.14;50.92
69035;BME280;56091;55.756;37.412;2022-08-11T00:23:56;99885.44;;;16.89;51.29
69035;BME280;56091;55.756;37.412;2022-08-11T00:29:10;99899.31;;;16.87;52.12
69035;BME280;56091;55.756;37.412;2022-08-11T00:34:11;99892.25;;;16.81;51.96
69035;BME280;56091;55.756;37.412;2022-08-11T00:39:15;99892.81;;;16.73;52.47
69035;BME280;56091;55.756;37.412;2022-08-11T00:50:01;99909.16;;;16.73;53.17
69035;BME280;56091;55.756;37.412;2022-08-11T01:50:06;99945.22;;;16.54;56.04
69035;BME280;56091;55.756;37.412;2022-08-11T01:55:53;99953.66;;;16.53;56.69
69035;BME280;56091;55.756;37.412;2022-08-11T02:17:52;99942.28;;;16.35;57.13
69035;BME280;56091;55.756;37.412;2022-08-11T02:50:24;99969.69;;;16.65;56.68
69035;BME280;56091;55.756;37.412;2022-08-11T02:55:30;99984.94;;;16.66;57.18
69035;BME280;56091;55.756;37.412;2022-08-11T03:00:56;99979.44;;;16.76;56.54
69035;BME280;56091;55.756;37.412;2022-08-11T03:06:25;99984.31;;;16.84;56.80
69035;BME280;56091;55.756;37.412;2022-08-11T03:17:24;99989.78;;;16.79;57.02
69035;BME280;56091;55.756;37.412;2022-08-11T03:22:36;99984.09;;;16.75;56.94
69035;BME280;56091;55.756;37.412;2022-08-11T03:39:08;100008.31;;;16.87;57.88
69035;BME280;56091;55.756;37.412;2022-08-11T04:28:54;99998.16;;;17.82;56.81
69035;BME280;56091;55.756;37.412;2022-08-11T04:56:46;100010.66;;;18.52;55.17
69035;BME280;56091;55.756;37.412;2022-08-11T05:13:29;100012.28;;;19.01;54.35
69035;BME280;56091;55.756;37.412;2022-08-11T05:18:51;100022.63;;;19.23;53.74
69035;BME280;56091;55.756;37.412;2022-08-11T05:24:31;100014.81;;;19.36;53.01
69035;BME280;56091;55.756;37.412;2022-08-11T05:30:04;100010.16;;;19.36;53.03
69035;BME280;56091;55.756;37.412;2022-08-11T05:35:29;100013.03;;;19.64;52.52
69035;BME280;56091;55.756;37.412;2022-08-11T05:40:34;100022.66;;;19.80;51.98
69035;BME280;56091;55.756;37.412;2022-08-11T05:46:02;100029.38;;;19.88;51.84
69035;BME280;56091;55.756;37.412;2022-08-11T05:51:35;100010.25;;;20.02;51.13
69035;BME280;56091;55.756;37.412;2022-08-11T05:56:58;100009.19;;;20.17;50.75
69035;BME280;56091;55.756;37.412;2022-08-11T06:02:04;100012.75;;;20.31;50.29
69035;BME280;56091;55.756;37.412;2022-08-11T06:07:11;100001.78;;;20.31;50.57
69035;BME280;56091;55.756;37.412;2022-08-11T06:12:31;100012.16;;;20.34;50.08
69035;BME280;56091;55.756;37.412;2022-08-11T06:17:34;100005.38;;;20.45;50.51
69035;BME280;56091;55.756;37.412;2022-08-11T06:22:37;100007.94;;;20.70;49.76
69035;BME280;56091;55.756;37.412;2022-08-11T06:27:39;100008.72;;;21.12;47.87
69035;BME280;56091;55.756;37.412;2022-08-11T06:32:44;100020.94;;;21.42;47.30
69035;BME280;56091;55.756;37.412;2022-08-11T06:48:20;100016.88;;;21.76;45.78
69035;BME280;56091;55.756;37.412;2022-08-11T06:53:21;100001.16;;;21.90;45.97
69035;BME280;56091;55.756;37.412;2022-08-11T06:58:27;100024.38;;;22.07;45.24
69035;BME280;56091;55.756;37.412;2022-08-11T07:03:53;100003.63;;;22.00;44.77
69035;BME280;56091;55.756;37.412;2022-08-11T07:14:33;100009.94;;;22.23;44.03
69035;BME280;56091;55.756;37.412;2022-08-11T07:19:58;100007.28;;;22.41;43.73
69035;BME280;56091;55.756;37.412;2022-08-11T07:25:21;100007.16;;;22.46;43.35
69035;BME280;56091;55.756;37.412;2022-08-11T07:30:41;100012.91;;;22.67;42.54
69035;BME280;56091;55.756;37.412;2022-08-11T07:35:48;100005.19;;;22.95;42.01
69035;BME280;56091;55.756;37.412;2022-08-11T07:40:57;100004.44;;;23.04;40.82
69035;BME280;56091;55.756;37.412;2022-08-11T07:46:02;99999.06;;;22.90;40.83
69035;BME280;56091;55.756;37.412;2022-08-11T07:51:22;100011.84;;;22.94;40.30
69035;BME280;56091;55.756;37.412;2022-08-11T07:56:41;100024.69;;;23.16;39.11
69035;BME280;56091;55.756;37.412;2022-08-11T08:01:43;100009.84;;;23.52;37.65
69035;BME280;56091;55.756;37.412;2022-08-11T08:07:04;100002.69;;;23.51;35.28
69035;BME280;56091;55.756;37.412;2022-08-11T08:12:24;100014.53;;;23.61;37.25
69035;BME280;56091;55.756;37.412;2022-08-11T08:17:44;100007.06;;;23.44;37.54
69035;BME280;56091;55.756;37.412;2022-08-11T08:22:53;100006.28;;;23.43;37.84
69035;BME280;56091;55.756;37.412;2022-08-11T08:27:58;100005.63;;;23.55;36.73
69035;BME280;56091;55.756;37.412;2022-08-11T08:33:01;100000.75;;;23.69;37.10
69035;BME280;56091;55.756;37.412;2022-08-11T08:38:02;99990.38;;;23.75;36.03
69035;BME280;56091;55.756;37.412;2022-08-11T08:43:12;100008.69;;;24.06;34.91
69035;BME280;56091;55.756;37.412;2022-08-11T08:48:15;100002.66;;;24.12;34.77
69035;BME280;56091;55.756;37.412;2022-08-11T08:53:24;100001.38;;;24.10;35.44
69035;BME280;56091;55.756;37.412;2022-08-11T08:58:30;99992.00;;;23.93;34.77
69035;BME280;56091;55.756;37.412;2022-08-11T09:03:36;99999.78;;;23.91;34.57
69035;BME280;56091;55.756;37.412;2022-08-11T09:08:37;99995.56;;;23.94;33.64
69035;BME280;56091;55.756;37.412;2022-08-11T09:13:41;99981.13;;;24.06;35.04
69035;BME280;56091;55.756;37.412;2022-08-11T09:18:44;99961.22;;;24.00;35.57
69035;BME280;56091;55.756;37.412;2022-08-11T09:23:45;99958.25;;;24.05;35.76
69035;BME280;56091;55.756;37.412;2022-08-11T09:29:10;99981.78;;;24.50;35.24
69035;BME280;56091;55.756;37.412;2022-08-11T09:34:13;99980.00;;;24.84;34.55
69035;BME280;56091;55.756;37.412;2022-08-11T09:39:15;99986.50;;;24.79;33.84
69035;BME280;56091;55.756;37.412;2022-08-11T09:44:36;99987.19;;;24.76;33.03
69035;BME280;56091;55.756;37.412;2022-08-11T09:50:00;99975.72;;;25.16;33.11
69035;BME280;56091;55.756;37.412;2022-08-11T09:55:05;99972.34;;;25.40;32.18
69035;BME280;56091;55.756;37.412;2022-08-11T10:00:12;99969.09;;;25.93;30.98
69035;BME280;56091;55.756;37.412;2022-08-11T10:05:17;99955.22;;;26.26;30.51
69035;BME280;56091;55.756;37.412;2022-08-11T10:10:38;99982.72;;;26.10;30.24
69035;BME280;56091;55.756;37.412;2022-08-11T10:15:40;99983.41;;;26.19;29.36
69035;BME280;56091;55.756;37.412;2022-08-11T10:20:47;99942.44;;;26.34;29.42
69035;BME280;56091;55.756;37.412;2022-08-11T10:25:51;99962.72;;;26.38;30.24
69035;BME280;56091;55.756;37.412;2022-08-11T10:31:12;99958.88;;;26.05;31.13
69035;BME280;56091;55.756;37.412;2022-08-11T10:36:38;99972.34;;;25.74;31.40
69035;BME280;56091;55.756;37.412;2022-08-11T10:41:47;99938.31;;;25.48;31.79
69035;BME280;56091;55.756;37.412;2022-08-11T10:47:09;99958.69;;;25.89;31.78
69035;BME280;56091;55.756;37.412;2022-08-11T10:52:30;99953.13;;;25.23;31.40
69035;BME280;56091;55.756;37.412;2022-08-11T10:57:49;99952.03;;;25.36;31.64
69035;BME280;56091;55.756;37.412;2022-08-11T11:03:09;99945.91;;;25.51;31.48
69035;BME280;56091;55.756;37.412;2022-08-11T11:08:19;99946.84;;;25.56;31.48
69035;BME280;56091;55.756;37.412;2022-08-11T11:13:46;99942.66;;;25.49;30.44
69035;BME280;56091;55.756;37.412;2022-08-11T11:19:08;99931.50;;;25.46;30.63
69035;BME280;56091;55.756;37.412;2022-08-11T11:24:33;99935.28;;;25.41;30.19
69035;BME280;56091;55.756;37.412;2022-08-11T11:40:14;99921.69;;;25.69;29.15
69035;BME280;56091;55.756;37.412;2022-08-11T11:45:25;99925.19;;;25.79;30.05
69035;BME280;56091;55.756;37.412;2022-08-11T11:50:36;99927.34;;;25.73;30.65
69035;BME280;56091;55.756;37.412;2022-08-11T11:55:37;99914.97;;;25.58;31.51
69035;BME280;56091;55.756;37.412;2022-08-11T12:00:42;99910.00;;;25.85;31.15
69035;BME280;56091;55.756;37.412;2022-08-11T12:06:06;99918.94;;;26.03;31.15
69035;BME280;56091;55.756;37.412;2022-08-11T12:11:12;99895.38;;;25.84;30.55
69035;BME280;56091;55.756;37.412;2022-08-11T12:16:33;99898.66;;;26.11;30.40
69035;BME280;56091;55.756;37.412;2022-08-11T12:21:35;99903.94;;;26.04;30.87
69035;BME280;56091;55.756;37.412;2022-08-11T12:26:37;99899.91;;;26.01;30.45
69035;BME280;56091;55.756;37.412;2022-08-11T12:31:57;99890.53;;;25.81;30.18
69035;BME280;56091;55.756;37.412;2022-08-11T12:37:02;99893.41;;;25.85;30.12
69035;BME280;56091;55.756;37.412;2022-08-11T12:42:08;99896.09;;;25.27;30.76
69035;BME280;56091;55.756;37.412;2022-08-11T12:47:30;99907.22;;;25.18;31.06
69035;BME280;56091;55.756;37.412;2022-08-11T12:52:52;99906.91;;;25.53;31.22
69035;BME280;56091;55.756;37.412;2022-08-11T12:57:54;99900.66;;;25.77;31.11
69035;BME280;56091;55.756;37.412;2022-08-11T13:03:14;99895.50;;;25.88;30.27
69035;BME280;56091;55.756;37.412;2022-08-11T13:08:38;99901.81;;;25.88;29.68
69035;BME280;56091;55.756;37.412;2022-08-11T13:13:40;99881.69;;;25.88;29.15
69035;BME280;56091;55.756;37.412;2022-08-11T13:18:49;99881.91;;;25.83;29.33
69035;BME280;56091;55.756;37.412;2022-08-11T13:23:55;99887.25;;;26.00;29.59
69035;BME280;56091;55.756;37.412;2022-08-11T13:28:59;99893.19;;;25.90;29.08
69035;BME280;56091;55.756;37.412;2022-08-11T13:34:00;99888.28;;;25.96;28.88
69035;BME280;56091;55.756;37.412;2022-08-11T13:39:06;99886.84;;;25.89;28.89
69035;BME280;56091;55.756;37.412;2022-08-11T13:44:09;99877.63;;;25.73;29.18
69035;BME280;56091;55.756;37.412;2022-08-11T13:49:15;99888.63;;;26.43;28.55
69035;BME280;56091;55.756;37.412;2022-08-11T13:54:18;99870.16;;;31.56;21.56
69035;BME280;56091;55.756;37.412;2022-08-11T13:59:22;99877.75;;;34.84;17.82
69035;BME280;56091;55.756;37.412;2022-08-11T14:04:34;99869.28;;;36.62;16.49
69035;BME280;56091;55.756;37.412;2022-08-11T14:09:41;99855.00;;;37.18;16.05
69035;BME280;56091;55.756;37.412;2022-08-11T14:14:46;99881.22;;;37.93;14.83
69035;BME280;56091;55.756;37.412;2022-08-11T14:19:51;99873.63;;;37.90;14.69
69035;BME280;56091;55.756;37.412;2022-08-11T14:24:53;99857.19;;;38.76;14.45
69035;BME280;56091;55.756;37.412;2022-08-11T14:29:55;99846.00;;;38.92;13.82
69035;BME280;56091;55.756;37.412;2022-08-11T14:34:57;99849.16;;;38.94;14.03
69035;BME280;56091;55.756;37.412;2022-08-11T14:45:22;99848.47;;;38.70;13.97
69035;BME280;56091;55.756;37.412;2022-08-11T14:50:42;99840.25;;;38.36;14.42
69035;BME280;56091;55.756;37.412;2022-08-11T14:55:43;99843.94;;;38.33;14.95
69035;BME280;56091;55.756;37.412;2022-08-11T15:01:03;99816.00;;;37.98;14.17
69035;BME280;56091;55.756;37.412;2022-08-11T15:06:26;99839.06;;;37.89;14.11
69035;BME280;56091;55.756;37.412;2022-08-11T15:11:29;99841.16;;;38.09;14.16
69035;BME280;56091;55.756;37.412;2022-08-11T15:16:50;99805.22;;;38.17;14.23
69035;BME280;56091;55.756;37.412;2022-08-11T15:22:10;99840.13;;;38.43;14.15
69035;BME280;56091;55.756;37.412;2022-08-11T15:27:31;99834.31;;;38.30;14.12
69035;BME280;56091;55.756;37.412;2022-08-11T15:32:52;99833.06;;;37.87;14.16
69035;BME280;56091;55.756;37.412;2022-08-11T15:38:14;99823.31;;;37.14;14.73
69035;BME280;56091;55.756;37.412;2022-08-11T15:43:20;99837.81;;;36.44;15.51
69035;BME280;56091;55.756;37.412;2022-08-11T15:48:47;99840.16;;;33.19;18.66
69035;BME280;56091;55.756;37.412;2022-08-11T15:53:56;99835.38;;;30.48;21.98
69035;BME280;56091;55.756;37.412;2022-08-11T15:59:03;99836.13;;;29.07;24.39
69035;BME280;56091;55.756;37.412;2022-08-11T16:04:27;99821.28;;;28.09;25.85
69035;BME280;56091;55.756;37.412;2022-08-11T16:14:41;99825.28;;;26.91;27.98
69035;BME280;56091;55.756;37.412;2022-08-11T16:20:04;99817.31;;;26.49;28.98
69035;BME280;56091;55.756;37.412;2022-08-11T16:25:07;99800.44;;;26.01;29.22
69035;BME280;56091;55.756;37.412;2022-08-11T16:30:17;99804.31;;;25.76;29.93
69035;BME280;56091;55.756;37.412;2022-08-11T16:35:21;99804.16;;;25.47;30.71
69035;BME280;56091;55.756;37.412;2022-08-11T16:40:42;99804.03;;;25.10;31.19
69035;BME280;56091;55.756;37.412;2022-08-11T16:45:44;99818.22;;;25.00;31.82
69035;BME280;56091;55.756;37.412;2022-08-11T16:51:06;99821.84;;;24.80;32.17
69035;BME280;56091;55.756;37.412;2022-08-11T16:56:08;99811.34;;;24.52;32.54
69035;BME280;56091;55.756;37.412;2022-08-11T17:01:12;99830.00;;;24.46;32.92
69035;BME280;56091;55.756;37.412;2022-08-11T17:06:14;99836.09;;;24.31;33.61
69035;BME280;56091;55.756;37.412;2022-08-11T17:11:41;99807.63;;;23.88;34.44
69035;BME280;56091;55.756;37.412;2022-08-11T17:17:12;99816.41;;;23.82;34.84
69035;BME280;56091;55.756;37.412;2022-08-11T17:22:15;99846.06;;;23.76;35.47
69035;BME280;56091;55.756;37.412;2022-08-11T17:27:36;99836.38;;;23.61;36.10
69035;BME280;56091;55.756;37.412;2022-08-11T17:32:40;99829.28;;;23.43;36.69
69035;BME280;56091;55.756;37.412;2022-08-11T17:43:06;99847.63;;;23.21;37.48
69035;BME280;56091;55.756;37.412;2022-08-11T17:48:32;99850.38;;;23.12;37.99
69035;BME280;56091;55.756;37.412;2022-08-11T17:53:43;99837.91;;;22.80;38.43
69035;BME280;56091;55.756;37.412;2022-08-11T17:59:04;99854.41;;;22.71;38.85
69035;BME280;56091;55.756;37.412;2022-08-11T18:04:25;99844.03;;;22.51;38.91
69035;BME280;56091;55.756;37.412;2022-08-11T18:09:27;99867.81;;;22.55;39.38
69035;BME280;56091;55.756;37.412;2022-08-11T18:14:49;99862.31;;;22.47;38.96
69035;BME280;56091;55.756;37.412;2022-08-11T18:20:09;99870.50;;;22.38;39.55
69035;BME280;56091;55.756;37.412;2022-08-11T18:25:33;99875.19;;;22.29;40.10
69035;BME280;56091;55.756;37.412;2022-08-11T18:30:59;99879.00;;;22.19;40.32
69035;BME280;56091;55.756;37.412;2022-08-11T18:36:22;99862.16;;;22.03;40.62
69035;BME280;56091;55.756;37.412;2022-08-11T18:41:44;99872.16;;;21.99;41.22
69035;BME280;56091;55.756;37.412;2022-08-11T18:47:09;99880.84;;;21.92;41.36
69035;BME280;56091;55.756;37.412;2022-08-11T18:52:29;99875.31;;;21.83;41.90
69035;BME280;56091;55.756;37.412;2022-08-11T18:57:51;99864.16;;;21.80;42.59
69035;BME280;56091;55.756;37.412;2022-08-11T19:03:13;99885.97;;;21.85;42.28
69035;BME280;56091;55.756;37.412;2022-08-11T19:08:37;99887.16;;;21.70;42.97
69035;BME280;56091;55.756;37.412;2022-08-11T19:14:00;99885.38;;;21.66;43.42
69035;BME280;56091;55.756;37.412;2022-08-11T19:19:20;99887.06;;;21.53;43.59
69035;BME280;56091;55.756;37.412;2022-08-11T19:24:43;99880.00;;;21.38;43.76
69035;BME280;56091;55.756;37.412;2022-08-11T19:30:05;99868.69;;;21.31;44.02
69035;BME280;56091;55.756;37.412;2022-08-11T19:35:29;99897.47;;;21.42;43.63
69035;BME280;56091;55.756;37.412;2022-08-11T19:40:50;99891.31;;;21.36;43.96
69035;BME280;56091;55.756;37.412;2022-08-11T19:46:11;99892.69;;;21.25;44.07
69035;BME280;56091;55.756;37.412;2022-08-11T19:51:33;99901.50;;;21.22;44.33
69035;BME280;56091;55.756;37.412;2022-08-11T19:56:53;99883.75;;;20.97;44.87
69035;BME280;56091;55.756;37.412;2022-08-11T20:02:15;99903.31;;;21.04;45.02
69035;BME280;56091;55.756;37.412;2022-08-11T20:07:35;99902.63;;;20.98;45.27
69035;BME280;56091;55.756;37.412;2022-08-11T20:12:59;99911.47;;;20.95;45.55
69035;BME280;56091;55.756;37.412;2022-08-11T20:18:20;99855.19;;;20.61;45.61
69035;BME280;56091;55.756;37.412;2022-08-11T20:23:43;99909.97;;;20.89;46.37
69035;BME280;56091;55.756;37.412;2022-08-11T20:29:05;99915.13;;;20.91;46.89
69035;BME280;56091;55.756;37.412;2022-08-11T20:34:27;99915.53;;;20.84;46.13
69035;BME280;56091;55.756;37.412;2022-08-11T20:39:50;99918.03;;;20.72;46.73
69035;BME280;56091;55.756;37.412;2022-08-11T20:45:12;99918.91;;;20.67;46.47
69035;BME280;56091;55.756;37.412;2022-08-11T20:50:33;99861.00;;;20.32;46.69
69035;BME280;56091;55.756;37.412;2022-08-11T20:55:54;99886.16;;;20.34;46.60
69035;BME280;56091;55.756;37.412;2022-08-11T21:01:16;99912.91;;;20.37;47.19
69035;BME280;56091;55.756;37.412;2022-08-11T21:06:36;99917.38;;;20.33;47.26
69035;BME280;56091;55.756;37.412;2022-08-11T21:11:57;99918.81;;;20.31;46.80
69035;BME280;56091;55.756;37.412;2022-08-11T21:17:19;99925.91;;;20.32;47.27
69035;BME280;56091;55.756;37.412;2022-08-11T21:22:46;99918.09;;;20.25;46.93
69035;BME280;56091;55.756;37.412;2022-08-11T21:28:09;99930.78;;;20.35;46.89
69035;BME280;56091;55.756;37.412;2022-08-11T21:33:30;99926.22;;;20.30;46.57
69035;BME280;56091;55.756;37.412;2022-08-11T21:38:50;99938.28;;;20.29;46.53
69035;BME280;56091;55.756;37.412;2022-08-11T21:44:10;99928.44;;;20.14;47.14
69035;BME280;56091;55.756;37.412;2022-08-11T21:49:31;99940.53;;;20.13;46.51
69035;BME280;56091;55.756;37.412;2022-08-11T21:54:52;99942.53;;;20.07;46.73
69035;BME280;56091;55.756;37.412;2022-08-11T22:00:13;99948.44;;;20.15;47.23
69035;BME280;56091;55.756;37.412;2022-08-11T22:05:33;99940.59;;;20.08;47.93
69035;BME280;56091;55.756;37.412;2022-08-11T22:10:53;99948.81;;;20.08;47.88
69035;BME280;56091;55.756;37.412;2022-08-11T22:16:14;99947.81;;;20.04;47.66
69035;BME280;56091;55.756;37.412;2022-08-11T22:21:35;99941.78;;;19.88;48.10
69035;BME280;56091;55.756;37.412;2022-08-11T22:26:55;99958.53;;;19.86;48.46
69035;BME280;56091;55.756;37.412;2022-08-11T22:32:15;99940.94;;;19.74;48.57
69035;BME280;56091;55.756;37.412;2022-08-11T22:37:36;99954.63;;;19.74;49.57
69035;BME280;56091;55.756;37.412;2022-08-11T22:43:00;99951.72;;;19.65;50.04
69035;BME280;56091;55.756;37.412;2022-08-11T22:48:25;99937.78;;;19.47;49.81
69035;BME280;56091;55.756;37.412;2022-08-11T22:53:49;99963.72;;;19.50;50.29
69035;BME280;56091;55.756;37.412;2022-08-11T22:59:13;99969.00;;;19.46;50.35
69035;BME280;56091;55.756;37.412;2022-08-11T23:04:33;99978.06;;;19.42;50.66
69035;BME280;56091;55.756;37.412;2022-08-11T23:09:53;99952.16;;;19.20;50.93
69035;BME280;56091;55.756;37.412;2022-08-11T23:15:13;99962.25;;;19.20;51.23
69035;BME280;56091;55.756;37.412;2022-08-11T23:20:34;99974.03;;;19.20;51.79
69035;BME280;56091;55.756;37.412;2022-08-11T23:25:54;99971.34;;;19.15;52.11
69035;BME280;56091;55.756;37.412;2022-08-11T23:31:15;99982.28;;;19.15;52.63
69035;BME280;56091;55.756;37.412;2022-08-11T23:36:36;99969.88;;;19.04;53.27
69035;BME280;56091;55.756;37.412;2022-08-11T23:41:57;99983.03;;;19.02;52.51
69035;BME280;56091;55.756;37.412;2022-08-11T23:47:17;99985.22;;;19.00;52.75
69035;BME280;56091;55.756;37.412;2022-08-11T23:52:37;99971.13;;;18.92;53.04
69035;BME280;56091;55.756;37.412;2022-08-11T23:58:02;99988.03;;;18.95;52.68
